Time;durP1;ratioP1;P1;durP2;ratioP2;P2;SDS_P1;SDS_P2;PMS_P1;PMS_P2;Temp;Humidity;BMP_temperature;BMP_pressure;BME280_temperature;BME280_humidity;BME280_pressure;Samples;Min_cycle;Max_cycle;Signal;HPM_P1;HPM_P2
2022/08/03 00:01:26;;;;;;;62.58;51.17;;;26.40;53.10;;;;;;4944219;28;90684;-58
2022/08/03 00:03:52;;;;;;;62.38;51.05;;;26.40;53.10;;;;;;4940884;28;95276;-60
2022/08/03 00:06:18;;;;;;;63.25;50.90;;;26.40;53.10;;;;;;4948371;28;89030;-59
2022/08/03 00:08:43;;;;;;;61.58;50.63;;;26.40;53.10;;;;;;4928513;28;96069;-58
2022/08/03 00:11:09;;;;;;;62.75;51.10;;;26.40;53.10;;;;;;4941696;28;92945;-56
2022/08/03 00:13:35;;;;;;;65.75;50.92;;;26.40;53.10;;;;;;4950338;28;91113;-57
2022/08/03 00:16:00;;;;;;;61.97;50.97;;;26.40;53.20;;;;;;4955004;28;90370;-58
2022/08/03 00:18:26;;;;;;;62.63;50.88;;;26.40;53.20;;;;;;4940832;28;96661;-58
2022/08/03 00:20:52;;;;;;;61.75;50.95;;;26.40;53.30;;;;;;4943218;28;90482;-57
2022/08/03 00:23:17;;;;;;;61.72;50.72;;;26.40;53.30;;;;;;4948386;28;89910;-57
2022/08/03 00:25:43;;;;;;;62.60;50.92;;;26.40;53.40;;;;;;4957231;28;90130;-59
2022/08/03 00:28:09;;;;;;;62.22;50.90;;;26.40;53.30;;;;;;4954980;28;90132;-59
2022/08/03 00:30:35;;;;;;;61.75;50.95;;;26.40;53.40;;;;;;4939619;28;90704;-59
2022/08/03 00:33:01;;;;;;;61.22;50.78;;;26.40;53.40;;;;;;4941632;28;89580;-54
2022/08/03 00:35:27;;;;;;;61.03;50.75;;;26.40;53.30;;;;;;4928271;28;93355;-56
2022/08/03 00:37:53;;;;;;;61.72;50.85;;;26.40;53.40;;;;;;4932795;28;92268;-59
2022/08/03 00:40:19;;;;;;;61.75;50.95;;;26.40;53.40;;;;;;4939273;28;95684;-59
2022/08/03 00:42:52;;;;;;;62.65;50.92;;;26.40;53.50;;;;;;4943522;28;92687;-58
2022/08/03 00:45:22;;;;;;;62.78;51.13;;;26.40;53.40;;;;;;4935230;28;92655;-58
2022/08/03 00:47:48;;;;;;;61.20;50.55;;;26.40;53.60;;;;;;4938009;28;90578;-57
2022/08/03 00:50:15;;;;;;;62.05;50.85;;;26.40;53.50;;;;;;4937713;28;91179;-57
2022/08/03 00:52:40;;;;;;;62.08;50.95;;;26.30;53.40;;;;;;4946288;28;90775;-58
2022/08/03 00:55:07;;;;;;;62.00;50.75;;;26.40;53.50;;;;;;4938155;28;89155;-55
2022/08/03 00:57:32;;;;;;;62.53;50.83;;;26.40;53.50;;;;;;4924302;28;91336;-59
2022/08/03 00:59:59;;;;;;;61.17;50.63;;;26.30;53.40;;;;;;4938246;28;92843;-55
2022/08/03 01:02:26;;;;;;;62.63;50.85;;;26.30;53.50;;;;;;4957684;28;90873;-59
2022/08/03 01:04:52;;;;;;;62.47;50.92;;;26.40;53.60;;;;;;4939127;28;92025;-59
2022/08/03 01:07:55;;;;;;;62.13;50.80;;;26.30;53.50;;;;;;4940247;28;90208;-59
2022/08/03 01:10:30;;;;;;;61.13;50.83;;;26.30;53.50;;;;;;4947283;28;95107;-59
2022/08/03 01:12:56;;;;;;;63.00;50.75;;;26.40;53.60;;;;;;4932759;28;90151;-56
2022/08/03 01:15:37;;;;;;;61.00;50.35;;;26.30;53.60;;;;;;4947763;28;91844;-59
2022/08/03 01:18:12;;;;;;;61.80;50.65;;;26.30;53.60;;;;;;4939973;28;90775;-59
2022/08/03 01:20:42;;;;;;;62.35;50.75;;;26.30;53.60;;;;;;4939971;28;90370;-59
2022/08/03 01:23:49;;;;;;;61.83;50.65;;;26.30;53.60;;;;;;4950791;28;90034;-60
2022/08/03 01:26:36;;;;;;;61.45;50.65;;;26.30;53.60;;;;;;4956302;28;90910;-60
2022/08/03 01:29:10;;;;;;;61.35;50.85;;;26.30;53.60;;;;;;4947145;28;91966;-59
2022/08/03 01:31:43;;;;;;;61.63;50.75;;;26.30;53.70;;;;;;4952863;28;90021;-59
2022/08/03 01:34:14;;;;;;;62.63;50.92;;;26.30;53.70;;;;;;4935284;28;89767;-59
2022/08/03 01:36:47;;;;;;;62.25;50.97;;;26.30;53.70;;;;;;4940319;28;91381;-56
2022/08/03 01:39:14;;;;;;;61.60;50.65;;;26.30;53.70;;;;;;4941384;28;90288;-57
2022/08/03 01:41:58;;;;;;;62.03;50.67;;;26.30;53.80;;;;;;4951478;28;90059;-59
2022/08/03 01:44:28;;;;;;;61.47;50.63;;;26.30;53.80;;;;;;4945356;28;90119;-61
2022/08/03 01:46:57;;;;;;;62.17;50.78;;;26.30;54.40;;;;;;4933830;28;94905;-60
2022/08/03 01:49:24;;;;;;;61.40;50.67;;;26.20;53.80;;;;;;4943861;28;90239;-58
2022/08/03 01:51:51;;;;;;;62.28;50.72;;;26.20;53.80;;;;;;4945669;28;91575;-59
2022/08/03 01:54:18;;;;;;;62.13;50.67;;;26.20;53.90;;;;;;4929233;28;91427;-59
2022/08/03 01:56:45;;;;;;;61.30;50.67;;;26.20;53.90;;;;;;4940056;28;91364;-59
2022/08/03 01:59:13;;;;;;;62.67;50.65;;;26.20;53.90;;;;;;4936967;28;95606;-59
2022/08/03 02:01:40;;;;;;;61.92;50.40;;;26.20;53.90;;;;;;4939167;28;94379;-58
2022/08/03 02:04:08;;;;;;;62.80;50.70;;;26.20;53.90;;;;;;4939806;28;91170;-56
2022/08/03 02:06:37;;;;;;;61.53;50.45;;;26.20;54.00;;;;;;4930554;28;96558;-57
2022/08/03 02:09:04;;;;;;;61.55;50.45;;;26.20;54.00;;;;;;4942493;28;92665;-59
2022/08/03 02:11:31;;;;;;;61.47;50.60;;;26.20;54.10;;;;;;4947860;28;90788;-59
2022/08/03 02:14:00;;;;;;;62.95;50.63;;;26.20;54.10;;;;;;4954390;28;90564;-57
2022/08/03 02:16:27;;;;;;;61.08;50.47;;;26.20;54.10;;;;;;4939586;28;94229;-57
2022/08/03 02:18:55;;;;;;;61.85;50.47;;;26.10;54.10;;;;;;4944039;28;91330;-60
2022/08/03 02:21:22;;;;;;;61.05;50.45;;;26.10;54.10;;;;;;4939271;28;90937;-59
2022/08/03 02:23:47;;;;;;;61.58;50.72;;;26.20;54.20;;;;;;4945669;28;89802;-55
2022/08/03 02:26:17;;;;;;;61.92;50.33;;;26.10;54.30;;;;;;4939171;28;90745;-60
2022/08/03 02:28:48;;;;;;;62.42;50.45;;;26.10;54.30;;;;;;4936423;28;91657;-59
2022/08/03 02:31:18;;;;;;;61.55;50.30;;;26.10;54.40;;;;;;4937617;28;91794;-57
2022/08/03 02:33:49;;;;;;;61.47;50.58;;;26.10;54.50;;;;;;4941570;28;90012;-59
2022/08/03 02:36:18;;;;;;;61.10;50.42;;;26.10;54.50;;;;;;4940417;28;89025;-59
2022/08/03 02:38:50;;;;;;;61.67;50.53;;;26.10;54.50;;;;;;4935791;28;94640;-59
2022/08/03 02:41:22;;;;;;;61.28;50.53;;;26.10;54.60;;;;;;4936267;28;95131;-60
2022/08/03 02:43:53;;;;;;;60.75;50.55;;;26.00;54.60;;;;;;4949559;28;93629;-56
2022/08/03 02:46:21;;;;;;;61.58;50.45;;;26.00;54.60;;;;;;4941005;28;94112;-59
2022/08/03 02:48:48;;;;;;;61.22;50.45;;;26.00;54.80;;;;;;4937199;28;91002;-58
2022/08/03 02:51:17;;;;;;;62.53;50.78;;;26.00;54.90;;;;;;4936021;28;93848;-59
2022/08/03 02:53:45;;;;;;;61.35;50.30;;;25.90;54.80;;;;;;4939099;28;90785;-59
2022/08/03 02:56:12;;;;;;;60.92;50.45;;;25.90;54.80;;;;;;4934893;28;93733;-59
2022/08/03 02:58:41;;;;;;;62.20;50.65;;;26.00;54.90;;;;;;4944723;28;91052;-58
2022/08/03 03:01:07;;;;;;;62.72;50.55;;;25.90;55.00;;;;;;4934573;28;90263;-59
2022/08/03 03:03:34;;;;;;;62.80;50.53;;;25.90;55.00;;;;;;4940076;28;91747;-59
2022/08/03 03:06:01;;;;;;;62.38;50.75;;;25.90;54.90;;;;;;4923779;28;89860;-58
2022/08/03 03:08:27;;;;;;;61.38;50.67;;;25.90;55.00;;;;;;4941953;28;93190;-59
2022/08/03 03:10:59;;;;;;;63.97;50.85;;;25.90;55.00;;;;;;4944014;28;91639;-53
2022/08/03 03:13:27;;;;;;;61.30;50.35;;;25.90;55.10;;;;;;4945273;28;90399;-59
2022/08/03 03:15:55;;;;;;;61.53;50.45;;;25.90;55.20;;;;;;4949577;28;90077;-59
2022/08/03 03:18:21;;;;;;;61.88;50.80;;;25.90;55.20;;;;;;4944353;28;89975;-58
2022/08/03 03:20:49;;;;;;;61.30;50.45;;;25.90;55.20;;;;;;4926460;28;90604;-59
2022/08/03 03:23:16;;;;;;;62.17;50.45;;;25.90;55.10;;;;;;4938286;28;90610;-56
2022/08/03 03:25:42;;;;;;;60.78;50.42;;;25.90;55.10;;;;;;4935081;28;89362;-56
2022/08/03 03:28:09;;;;;;;61.60;50.50;;;25.90;55.20;;;;;;4940967;28;90051;-60
2022/08/03 03:30:35;;;;;;;61.65;50.45;;;25.80;55.10;;;;;;4944733;28;90466;-57
2022/08/03 03:33:01;;;;;;;61.88;50.53;;;25.80;55.20;;;;;;4945376;28;90527;-59
2022/08/03 03:35:27;;;;;;;61.30;50.42;;;25.90;55.20;;;;;;4938138;28;94698;-58
2022/08/03 03:37:53;;;;;;;60.85;50.65;;;25.80;55.10;;;;;;4934392;28;92142;-59
2022/08/03 03:40:19;;;;;;;61.33;50.25;;;25.80;55.20;;;;;;4948691;28;91944;-59
2022/08/03 03:42:44;;;;;;;61.10;50.28;;;25.80;55.20;;;;;;4942938;28;93381;-57
2022/08/03 03:45:11;;;;;;;60.80;50.60;;;25.80;55.20;;;;;;4940575;28;90378;-59
2022/08/03 03:47:37;;;;;;;62.90;50.42;;;25.80;55.20;;;;;;4943170;28;90033;-57
2022/08/03 03:50:05;;;;;;;62.30;50.55;;;25.80;55.20;;;;;;4944958;28;90394;-52
2022/08/03 03:52:31;;;;;;;61.85;50.35;;;25.80;55.40;;;;;;4939830;28;90264;-59
2022/08/03 03:54:57;;;;;;;60.95;50.42;;;25.80;55.40;;;;;;4941280;28;91232;-56
2022/08/03 03:57:22;;;;;;;61.70;50.40;;;25.80;55.40;;;;;;4949127;28;92796;-59
2022/08/03 03:59:48;;;;;;;61.50;50.53;;;25.70;55.50;;;;;;4946218;28;90940;-58
2022/08/03 04:02:14;;;;;;;61.00;50.35;;;25.70;55.40;;;;;;4931004;28;91705;-55
2022/08/03 04:13:08;;;;;;;60.53;50.60;;;25.70;55.80;;;;;;4954437;28;89937;-59
2022/08/03 04:15:38;;;;;;;62.45;50.45;;;25.60;55.70;;;;;;4944947;28;91787;-59
2022/08/03 04:18:07;;;;;;;61.33;50.40;;;25.60;55.80;;;;;;4938827;28;90218;-58
2022/08/03 04:20:35;;;;;;;61.22;50.58;;;25.60;55.80;;;;;;4943252;28;92525;-59
2022/08/03 04:23:02;;;;;;;60.88;50.47;;;25.60;55.80;;;;;;4943028;28;95505;-58
2022/08/03 04:25:31;;;;;;;61.03;50.33;;;25.60;55.80;;;;;;4949556;28;93610;-59
2022/08/03 04:28:00;;;;;;;63.35;50.92;;;25.60;55.80;;;;;;4930764;28;93823;-58
2022/08/03 04:30:27;;;;;;;62.63;50.30;;;25.60;55.90;;;;;;4931541;28;90229;-57
2022/08/03 04:32:57;;;;;;;62.85;50.75;;;25.60;56.00;;;;;;4938868;28;95885;-59
2022/08/03 04:35:25;;;;;;;61.20;50.47;;;25.60;56.00;;;;;;4942849;28;89618;-59
2022/08/03 04:37:54;;;;;;;62.28;50.53;;;25.60;56.00;;;;;;4934738;28;90374;-60
2022/08/03 04:40:29;;;;;;;61.72;50.63;;;25.60;56.10;;;;;;4943131;28;89145;-60
2022/08/03 04:42:57;;;;;;;60.78;50.50;;;25.60;56.10;;;;;;4938865;28;91753;-59
2022/08/03 04:45:24;;;;;;;61.22;50.70;;;25.60;56.00;;;;;;4947391;28;89472;-61
2022/08/03 04:47:50;;;;;;;63.17;50.70;;;25.60;56.00;;;;;;4934054;28;94051;-59
2022/08/03 04:50:16;;;;;;;60.42;50.50;;;25.60;56.10;;;;;;4940356;28;92234;-59
2022/08/03 04:52:43;;;;;;;61.78;50.55;;;25.60;56.00;;;;;;4945283;28;91844;-59
2022/08/03 04:55:09;;;;;;;62.28;51.03;;;25.60;56.20;;;;;;4950619;28;91398;-59
2022/08/03 04:57:34;;;;;;;61.33;50.45;;;25.60;56.20;;;;;;4938742;28;90291;-59
2022/08/03 05:00:00;;;;;;;61.10;50.60;;;25.60;56.30;;;;;;4940986;28;91275;-58
2022/08/03 05:02:26;;;;;;;61.63;50.97;;;25.60;56.30;;;;;;4947307;28;90168;-60
2022/08/03 05:04:51;;;;;;;60.97;50.92;;;25.60;56.30;;;;;;4945873;28;89176;-55
2022/08/03 05:07:18;;;;;;;62.08;51.08;;;25.60;56.30;;;;;;4929319;28;90068;-53
2022/08/03 05:09:44;;;;;;;61.80;50.67;;;25.60;56.30;;;;;;4947656;28;90254;-55
2022/08/03 05:12:10;;;;;;;61.60;50.80;;;25.60;56.20;;;;;;4939628;28;94316;-58
2022/08/03 05:14:37;;;;;;;61.95;50.88;;;25.60;56.30;;;;;;4930866;28;91178;-58
2022/08/03 05:17:05;;;;;;;64.22;50.72;;;25.60;56.20;;;;;;4942734;28;90149;-57
2022/08/03 05:19:31;;;;;;;62.70;50.85;;;25.60;56.20;;;;;;4939811;28;89815;-59
2022/08/03 05:21:57;;;;;;;62.40;50.92;;;25.60;56.20;;;;;;4952991;28;90073;-59
2022/08/03 05:24:23;;;;;;;60.60;50.42;;;25.60;56.20;;;;;;4930532;28;90637;-60
2022/08/03 05:26:48;;;;;;;62.85;50.67;;;25.60;56.20;;;;;;4938111;28;92613;-60
2022/08/03 05:29:14;;;;;;;61.78;50.53;;;25.60;56.40;;;;;;4957897;28;89990;-59
2022/08/03 05:31:39;;;;;;;62.50;50.63;;;25.50;56.70;;;;;;4936520;28;90270;-60
2022/08/03 05:34:05;;;;;;;63.25;51.10;;;25.40;57.50;;;;;;4936506;28;90709;-60
2022/08/03 05:36:31;;;;;;;62.75;51.13;;;25.30;57.90;;;;;;4932324;28;91697;-60
2022/08/03 05:38:56;;;;;;;67.03;51.63;;;25.20;58.30;;;;;;4942697;28;90936;-58
2022/08/03 05:41:22;;;;;;;67.53;51.47;;;25.10;58.60;;;;;;4941283;28;89958;-55
2022/08/03 05:43:48;;;;;;;70.30;51.65;;;25.20;58.60;;;;;;4939729;28;89938;-54
2022/08/03 05:46:14;;;;;;;67.30;51.42;;;25.20;58.80;;;;;;4949258;28;90936;-59
2022/08/03 05:48:40;;;;;;;63.65;51.13;;;25.20;59.10;;;;;;4935781;28;90297;-56
2022/08/03 05:51:09;;;;;;;65.28;51.33;;;25.00;59.40;;;;;;4937976;28;89508;-60
2022/08/03 05:53:36;;;;;;;67.03;51.78;;;25.00;59.60;;;;;;4938249;28;89413;-57
2022/08/03 05:56:02;;;;;;;65.38;51.63;;;25.10;59.70;;;;;;4945412;28;90156;-59
2022/08/03 05:58:28;;;;;;;68.30;51.60;;;25.20;59.10;;;;;;4939567;28;91510;-59
2022/08/03 06:00:53;;;;;;;66.22;51.58;;;25.40;58.60;;;;;;4941752;28;91569;-59
2022/08/03 06:03:19;;;;;;;63.05;51.47;;;25.60;58.40;;;;;;4948458;28;89890;-52
2022/08/03 06:05:45;;;;;;;66.22;51.83;;;25.60;57.50;;;;;;4953155;28;97963;-59
2022/08/03 06:08:10;;;;;;;65.88;51.58;;;25.60;57.90;;;;;;4939664;28;94739;-59
2022/08/03 06:10:36;;;;;;;65.32;51.85;;;25.60;57.70;;;;;;4936654;28;90097;-60
2022/08/03 06:13:02;;;;;;;65.15;51.42;;;25.60;57.60;;;;;;4949844;28;90736;-59
2022/08/03 06:15:29;;;;;;;65.15;51.63;;;25.60;57.50;;;;;;4937808;28;90966;-59
2022/08/03 06:17:56;;;;;;;65.93;51.72;;;25.60;57.50;;;;;;4942104;28;90751;-58
2022/08/03 06:20:22;;;;;;;65.78;51.92;;;25.60;57.50;;;;;;4942789;28;90252;-62
2022/08/03 06:22:48;;;;;;;66.90;51.38;;;25.70;57.40;;;;;;4948273;28;90705;-58
2022/08/03 06:25:15;;;;;;;65.20;51.58;;;25.70;57.40;;;;;;4939005;28;91179;-60
2022/08/03 06:27:41;;;;;;;63.50;51.15;;;25.80;57.30;;;;;;4942254;28;91476;-62
2022/08/03 06:30:12;;;;;;;65.78;51.60;;;25.70;57.20;;;;;;4936770;28;89767;-58
2022/08/03 06:32:38;;;;;;;64.80;51.53;;;25.80;57.20;;;;;;4938870;28;90929;-58
2022/08/03 06:35:08;;;;;;;65.97;51.38;;;25.90;57.20;;;;;;4934416;28;97882;-57
2022/08/03 06:37:48;;;;;;;64.80;51.25;;;25.90;57.20;;;;;;4940876;28;90320;-59
2022/08/03 06:40:17;;;;;;;63.17;51.17;;;25.90;57.10;;;;;;4939127;28;89541;-58
2022/08/03 06:42:43;;;;;;;64.63;51.00;;;25.90;57.00;;;;;;4941664;28;89180;-62
2022/08/03 06:45:10;;;;;;;67.32;51.45;;;25.90;57.00;;;;;;4937022;28;90400;-60
2022/08/03 06:47:36;;;;;;;65.38;51.83;;;25.90;57.50;;;;;;4933910;28;90578;-59
2022/08/03 06:50:04;;;;;;;66.20;51.47;;;25.90;57.00;;;;;;4951831;28;91443;-59
2022/08/03 06:52:30;;;;;;;65.35;51.65;;;25.90;57.00;;;;;;4950948;28;89547;-59
2022/08/03 06:54:56;;;;;;;63.25;50.95;;;25.90;57.00;;;;;;4932146;28;90726;-58
2022/08/03 06:57:21;;;;;;;65.47;51.47;;;25.90;57.00;;;;;;4946186;28;89944;-58
2022/08/03 06:59:47;;;;;;;63.60;51.08;;;25.90;56.80;;;;;;4953325;28;90293;-54
2022/08/03 07:02:13;;;;;;;64.55;51.33;;;26.00;56.80;;;;;;4955714;28;90250;-59
2022/08/03 07:04:38;;;;;;;64.18;51.67;;;26.00;56.90;;;;;;4942111;28;91094;-59
2022/08/03 07:07:04;;;;;;;62.88;51.40;;;25.90;57.10;;;;;;4945143;28;89718;-59
2022/08/03 07:09:30;;;;;;;67.43;51.83;;;26.00;57.00;;;;;;4944669;28;96399;-55
2022/08/03 07:11:55;;;;;;;63.72;51.63;;;26.00;57.00;;;;;;4936835;28;93792;-55
2022/08/03 07:14:21;;;;;;;64.60;51.63;;;26.00;57.00;;;;;;4946132;28;91435;-56
2022/08/03 07:16:47;;;;;;;63.25;51.55;;;26.00;57.00;;;;;;4938946;28;91036;-56
2022/08/03 07:19:13;;;;;;;66.88;51.90;;;26.00;56.90;;;;;;4947239;28;90916;-59
2022/08/03 07:21:39;;;;;;;64.60;51.45;;;26.00;56.80;;;;;;4948530;28;91042;-58
2022/08/03 07:24:05;;;;;;;66.13;51.67;;;26.00;56.80;;;;;;4943618;28;90712;-57
2022/08/03 07:26:30;;;;;;;65.05;51.80;;;26.00;56.80;;;;;;4955242;28;90149;-57
2022/08/03 07:28:56;;;;;;;63.92;51.20;;;26.00;56.80;;;;;;4937995;28;90007;-59
2022/08/03 07:31:22;;;;;;;63.17;51.45;;;26.00;56.90;;;;;;4946587;28;89115;-62
2022/08/03 07:33:47;;;;;;;63.65;51.53;;;26.10;56.90;;;;;;4936975;28;90174;-50
2022/08/03 07:36:13;;;;;;;64.05;51.75;;;26.10;56.80;;;;;;4933123;28;95119;-56
2022/08/03 07:38:38;;;;;;;64.45;51.70;;;26.10;56.80;;;;;;4930422;28;90902;-54
2022/08/03 07:41:04;;;;;;;67.10;52.13;;;26.20;56.80;;;;;;4943024;28;89804;-59
2022/08/03 07:43:30;;;;;;;62.35;51.38;;;26.20;56.80;;;;;;4948988;28;90178;-56
2022/08/03 07:45:55;;;;;;;65.50;51.95;;;26.20;56.80;;;;;;4944099;28;90360;-59
2022/08/03 07:48:21;;;;;;;64.80;51.78;;;26.20;56.80;;;;;;4937920;28;91905;-59
2022/08/03 07:50:47;;;;;;;63.72;51.45;;;26.20;56.80;;;;;;4948886;28;90288;-55
2022/08/03 07:53:13;;;;;;;67.50;51.72;;;26.20;56.70;;;;;;4953465;28;90200;-60
2022/08/03 07:55:38;;;;;;;65.10;51.67;;;26.20;56.80;;;;;;4937115;28;90692;-60
2022/08/03 07:58:16;;;;;;;63.45;51.28;;;26.20;56.70;;;;;;4954991;28;93288;-58
2022/08/03 08:00:43;;;;;;;66.70;51.85;;;26.20;56.70;;;;;;4939256;28;90223;-60
2022/08/03 08:03:11;;;;;;;65.30;51.47;;;26.30;56.70;;;;;;4947245;28;91763;-58
2022/08/03 08:05:36;;;;;;;64.85;51.67;;;26.30;56.60;;;;;;4943101;28;93034;-58
2022/08/03 08:08:03;;;;;;;68.60;52.05;;;26.30;56.70;;;;;;4942446;28;89896;-60
2022/08/03 08:10:29;;;;;;;65.10;51.70;;;26.30;56.70;;;;;;4934800;28;89537;-51
2022/08/03 08:12:55;;;;;;;64.07;51.40;;;26.30;56.70;;;;;;4951320;28;90073;-59
2022/08/03 08:15:21;;;;;;;64.72;51.40;;;26.30;56.70;;;;;;4943619;28;91429;-61
2022/08/03 08:17:50;;;;;;;63.25;51.67;;;26.30;56.60;;;;;;4946673;28;92759;-58
2022/08/03 08:20:24;;;;;;;63.97;51.67;;;26.40;56.60;;;;;;4955430;28;94058;-58
2022/08/03 08:22:50;;;;;;;64.38;51.65;;;26.40;56.60;;;;;;4945245;28;90935;-60
2022/08/03 08:25:16;;;;;;;67.47;52.15;;;26.40;56.60;;;;;;4934294;28;95967;-56
2022/08/03 08:27:46;;;;;;;65.78;52.00;;;26.40;56.60;;;;;;4943513;28;94702;-59
2022/08/03 08:30:13;;;;;;;63.80;51.47;;;26.40;56.60;;;;;;4940249;28;92788;-54
2022/08/03 08:32:39;;;;;;;63.88;51.80;;;26.40;56.60;;;;;;4932597;28;90260;-57
2022/08/03 08:35:06;;;;;;;64.28;51.83;;;26.50;56.60;;;;;;4937825;28;90016;-56
2022/08/03 08:37:32;;;;;;;65.07;51.75;;;26.50;56.60;;;;;;4942130;28;95694;-59
2022/08/03 08:39:58;;;;;;;66.00;51.92;;;26.50;56.50;;;;;;4943103;28;94222;-59
2022/08/03 08:42:24;;;;;;;64.65;51.60;;;26.50;56.50;;;;;;4938750;28;90418;-55
2022/08/03 08:44:50;;;;;;;65.93;51.63;;;26.50;56.50;;;;;;4945831;28;89980;-56
2022/08/03 08:47:18;;;;;;;65.53;51.78;;;26.60;56.40;;;;;;4942978;28;89748;-53
2022/08/03 08:49:45;;;;;;;63.92;51.83;;;26.60;56.40;;;;;;4947363;28;90406;-57
2022/08/03 08:52:12;;;;;;;65.78;51.75;;;26.60;56.30;;;;;;4944056;28;95842;-57
2022/08/03 08:54:40;;;;;;;65.20;51.72;;;26.60;56.30;;;;;;4948010;28;89859;-56
2022/08/03 08:57:08;;;;;;;63.22;51.65;;;26.70;56.20;;;;;;4953010;28;90332;-58
2022/08/03 08:59:34;;;;;;;63.95;51.58;;;26.70;56.20;;;;;;4948981;28;89599;-55
2022/08/03 09:02:00;;;;;;;65.45;51.75;;;26.70;56.20;;;;;;4940956;28;92937;-59
2022/08/03 09:04:29;;;;;;;63.10;51.67;;;26.70;56.10;;;;;;4944909;28;89760;-57
2022/08/03 09:06:55;;;;;;;64.88;51.78;;;26.80;56.70;;;;;;4953677;28;89940;-60
2022/08/03 09:09:23;;;;;;;66.93;51.85;;;26.80;56.10;;;;;;4943680;28;89466;-58
2022/08/03 09:11:49;;;;;;;66.38;52.17;;;26.80;56.10;;;;;;4944993;28;90014;-57
2022/08/03 09:14:14;;;;;;;65.45;52.10;;;26.80;56.00;;;;;;4933982;28;90274;-61
2022/08/03 09:17:03;;;;;;;64.40;51.67;;;26.80;55.90;;;;;;4948608;28;90949;-56
2022/08/03 09:19:33;;;;;;;64.38;51.47;;;26.80;55.90;;;;;;4935263;28;90424;-59
2022/08/03 09:22:08;;;;;;;65.55;52.05;;;26.80;55.90;;;;;;4939416;28;90259;-58
2022/08/03 09:24:35;;;;;;;64.32;51.85;;;26.90;55.90;;;;;;4943173;28;90417;-58
2022/08/03 09:27:00;;;;;;;64.35;51.80;;;26.90;55.80;;;;;;4942636;28;90303;-57
2022/08/03 09:29:31;;;;;;;64.45;51.78;;;26.90;55.80;;;;;;4944893;28;89921;-58
2022/08/03 09:32:02;;;;;;;64.05;51.63;;;27.00;55.80;;;;;;4936472;28;90369;-58
2022/08/03 09:34:28;;;;;;;63.72;51.67;;;27.00;55.80;;;;;;4939996;28;89524;-52
2022/08/03 09:36:55;;;;;;;65.97;51.83;;;27.00;55.80;;;;;;4942457;28;93425;-57
2022/08/03 09:39:30;;;;;;;66.20;51.75;;;27.00;55.80;;;;;;4954034;28;89906;-57
2022/08/03 09:42:18;;;;;;;64.13;51.90;;;27.00;55.70;;;;;;4947807;28;94170;-59
2022/08/03 09:44:49;;;;;;;63.50;51.72;;;27.00;55.80;;;;;;4947494;28;92257;-59
2022/08/03 09:47:26;;;;;;;68.55;52.13;;;27.00;55.70;;;;;;4931164;28;96950;-59
2022/08/03 09:50:00;;;;;;;64.63;51.70;;;27.00;55.70;;;;;;4947592;28;89663;-59
2022/08/03 09:52:32;;;;;;;65.55;51.95;;;27.00;55.70;;;;;;4935017;28;90936;-60
2022/08/03 09:55:00;;;;;;;66.15;51.80;;;27.00;55.70;;;;;;4947504;28;91800;-59
2022/08/03 09:57:27;;;;;;;64.65;51.85;;;27.00;55.80;;;;;;4944912;28;89632;-60
2022/08/03 10:00:09;;;;;;;65.10;51.97;;;27.10;55.80;;;;;;4940503;28;89778;-59
2022/08/03 10:02:36;;;;;;;64.78;51.65;;;27.10;55.80;;;;;;4940294;28;93721;-57
2022/08/03 10:05:03;;;;;;;64.70;51.80;;;27.10;55.70;;;;;;4937155;28;91383;-56
2022/08/03 10:07:29;;;;;;;64.13;51.95;;;27.10;55.70;;;;;;4945127;28;93740;-57
2022/08/03 10:09:57;;;;;;;64.97;51.78;;;27.20;55.70;;;;;;4932984;28;92730;-57
2022/08/03 10:12:24;;;;;;;68.93;52.05;;;27.20;55.60;;;;;;4938663;28;90123;-57
2022/08/03 10:14:51;;;;;;;63.58;51.63;;;27.20;55.60;;;;;;4936026;28;92326;-56
2022/08/03 10:17:17;;;;;;;66.57;52.13;;;27.20;55.50;;;;;;4940725;28;89871;-57
2022/08/03 10:19:43;;;;;;;63.97;51.92;;;27.10;55.60;;;;;;4939181;28;91019;-58
2022/08/03 10:22:16;;;;;;;63.85;52.03;;;27.20;55.60;;;;;;4945104;28;94267;-60
2022/08/03 10:24:59;;;;;;;65.13;51.95;;;27.20;55.60;;;;;;4944941;28;90486;-55
2022/08/03 10:27:29;;;;;;;64.63;51.92;;;27.30;55.60;;;;;;4949147;28;89754;-61
2022/08/03 10:29:59;;;;;;;65.70;51.57;;;27.30;55.50;;;;;;4956995;28;91401;-60
2022/08/03 10:32:30;;;;;;;65.65;52.22;;;27.30;55.50;;;;;;4936571;28;95017;-57
2022/08/03 10:35:09;;;;;;;64.38;51.97;;;27.30;55.50;;;;;;4946892;28;91092;-57
2022/08/03 10:37:42;;;;;;;65.55;52.22;;;27.30;55.50;;;;;;4953729;28;89534;-60
2022/08/03 10:40:13;;;;;;;63.08;51.85;;;27.30;55.50;;;;;;4934153;28;94558;-56
2022/08/03 10:42:42;;;;;;;64.50;52.03;;;27.30;55.50;;;;;;4948351;28;95492;-59
2022/08/03 10:45:18;;;;;;;66.78;52.25;;;27.40;55.50;;;;;;4945809;28;90020;-54
2022/08/03 10:47:44;;;;;;;65.40;52.05;;;27.40;55.50;;;;;;4946645;28;90528;-59
2022/08/03 10:50:11;;;;;;;66.18;52.10;;;27.40;55.40;;;;;;4953644;28;90852;-59
2022/08/03 10:52:52;;;;;;;64.13;52.22;;;27.40;55.40;;;;;;4936709;28;94890;-56
2022/08/03 10:58:37;;;;;;;64.28;52.28;;;27.40;55.30;;;;;;4947018;28;91741;-55
2022/08/03 11:01:07;;;;;;;64.22;52.22;;;27.50;55.40;;;;;;4939286;28;89844;-59
2022/08/03 11:03:53;;;;;;;65.22;52.08;;;27.50;55.30;;;;;;4946461;28;89739;-61
2022/08/03 11:06:24;;;;;;;65.60;52.22;;;27.50;55.30;;;;;;4949945;28;89770;-62
2022/08/03 11:09:09;;;;;;;;;;;27.50;55.30;;;;;;4945091;28;90380;-59
2022/08/03 11:11:42;;;;;;;65.50;51.72;;;27.50;55.30;;;;;;4959456;28;95291;-60
2022/08/03 11:14:19;;;;;;;64.63;51.78;;;27.40;55.50;;;;;;4945815;28;91086;-56
2022/08/03 11:16:48;;;;;;;65.43;52.00;;;27.50;55.40;;;;;;4946597;28;89825;-59
2022/08/03 11:19:21;;;;;;;64.30;51.97;;;27.50;55.40;;;;;;4941193;28;89553;-61
2022/08/03 11:21:49;;;;;;;65.97;51.92;;;27.50;55.30;;;;;;4946941;28;89883;-57
2022/08/03 11:24:40;;;;;;;65.13;52.03;;;27.50;55.30;;;;;;4942748;28;96198;-59
2022/08/03 11:27:15;;;;;;;64.43;52.10;;;27.50;55.20;;;;;;4945218;28;91008;-57
2022/08/03 11:29:55;;;;;;;66.72;51.67;;;27.60;55.30;;;;;;4949921;28;89825;-59
2022/08/03 11:32:39;;;;;;;63.90;52.00;;;27.60;55.30;;;;;;4931062;28;89858;-59
2022/08/03 11:35:11;;;;;;;63.28;51.90;;;27.60;55.30;;;;;;4936275;28;90366;-61
2022/08/03 11:38:01;;;;;;;66.47;52.13;;;27.60;55.30;;;;;;4949823;28;89646;-60
2022/08/03 11:40:48;;;;;;;65.70;52.10;;;27.60;55.30;;;;;;4947902;28;89817;-60
2022/08/03 11:43:28;;;;;;;64.10;52.13;;;27.60;55.30;;;;;;4960939;28;89687;-59
2022/08/03 11:46:12;;;;;;;64.85;52.22;;;27.60;55.30;;;;;;4957283;28;90103;-60
2022/08/03 11:48:41;;;;;;;65.90;51.83;;;27.60;55.30;;;;;;4947086;28;90476;-61
2022/08/03 11:51:22;;;;;;;63.05;51.92;;;27.60;55.30;;;;;;4938146;28;91745;-59
2022/08/03 11:53:52;;;;;;;65.35;52.05;;;27.70;55.30;;;;;;4942438;28;91360;-59
2022/08/03 11:56:19;;;;;;;64.72;51.92;;;27.60;55.80;;;;;;4944827;28;93841;-59
2022/08/03 11:58:50;;;;;;;63.97;52.00;;;27.70;55.30;;;;;;4946535;28;89916;-58
2022/08/03 12:01:17;;;;;;;65.35;52.30;;;27.60;55.30;;;;;;4948579;28;89720;-61
2022/08/03 12:03:42;;;;;;;64.68;51.80;;;27.70;55.90;;;;;;4945083;28;90392;-59
2022/08/03 12:06:10;;;;;;;64.90;52.13;;;27.70;55.20;;;;;;4940432;28;90339;-60
2022/08/03 12:08:36;;;;;;;63.92;52.22;;;27.60;55.20;;;;;;4949639;28;90346;-59
2022/08/03 12:11:05;;;;;;;64.82;52.28;;;27.70;55.40;;;;;;4945468;28;95041;-59
2022/08/03 12:13:47;;;;;;;64.72;52.50;;;27.60;55.30;;;;;;4949906;28;89976;-59
2022/08/03 12:16:27;;;;;;;63.72;52.03;;;27.70;55.40;;;;;;4944273;28;92451;-59
2022/08/03 12:19:04;;;;;;;63.80;52.00;;;27.70;55.40;;;;;;4940479;28;90881;-59
2022/08/03 12:21:30;;;;;;;65.47;51.97;;;27.70;55.40;;;;;;4948739;28;89457;-60
2022/08/03 12:23:58;;;;;;;63.78;52.00;;;27.70;55.40;;;;;;4947701;28;90990;-59
2022/08/03 12:26:25;;;;;;;63.88;51.95;;;27.80;55.30;;;;;;4943124;28;90315;-59
2022/08/03 12:28:51;;;;;;;63.90;51.97;;;27.70;55.30;;;;;;4933135;28;90948;-57
2022/08/03 12:31:16;;;;;;;65.40;51.97;;;27.70;55.30;;;;;;4941768;28;90432;-59
2022/08/03 12:33:57;;;;;;;65.30;52.30;;;27.70;55.20;;;;;;4938706;28;91580;-59
2022/08/03 12:36:22;;;;;;;63.53;51.75;;;27.70;55.20;;;;;;4947336;28;90195;-59
2022/08/03 12:38:59;;;;;;;64.20;52.20;;;27.80;55.80;;;;;;4946848;28;96066;-60
2022/08/03 12:41:39;;;;;;;66.32;52.55;;;27.80;55.20;;;;;;4941066;28;91036;-58
2022/08/03 12:44:07;;;;;;;63.67;52.35;;;27.80;55.30;;;;;;4950650;28;91953;-60
2022/08/03 12:46:41;;;;;;;64.72;52.10;;;27.80;55.30;;;;;;4951201;28;91578;-61
2022/08/03 12:49:07;;;;;;;64.63;52.53;;;27.80;55.20;;;;;;4947885;28;90919;-54